createdAt,value
2024-03-16T00:00:11.889Z,101074.92
2024-03-16T00:00:34.345Z,101072.20
2024-03-16T00:00:57.985Z,101072.97
2024-03-16T00:01:20.423Z,101072.78
2024-03-16T00:01:42.795Z,101068.27
2024-03-16T00:02:05.010Z,101070.86
2024-03-16T00:02:27.205Z,101072.56
2024-03-16T00:02:49.387Z,101074.95
2024-03-16T00:03:11.529Z,101071.04
2024-03-16T00:03:33.788Z,101072.86
2024-03-16T00:03:56.024Z,101068.58
2024-03-16T00:04:18.163Z,101070.91
2024-03-16T00:04:41.170Z,101071.48
2024-03-16T00:05:03.298Z,101068.08
2024-03-16T00:05:25.649Z,101069.23
2024-03-16T00:05:47.908Z,101068.05
2024-03-16T00:06:10.047Z,101068.50
2024-03-16T00:06:32.261Z,101070.41
2024-03-16T00:06:54.709Z,101068.43
2024-03-16T00:07:16.906Z,101068.21
2024-03-16T00:07:39.172Z,101068.23
2024-03-16T00:08:01.353Z,101065.74
2024-03-16T00:08:24.347Z,101067.88
2024-03-16T00:08:46.535Z,101067.50
2024-03-16T00:09:09.667Z,101064.88
2024-03-16T00:09:31.765Z,101066.54
2024-03-16T00:09:54.376Z,101070.20
2024-03-16T00:10:16.684Z,101068.11
2024-03-16T00:10:39.039Z,101068.66
2024-03-16T00:11:01.190Z,101067.63
2024-03-16T00:11:23.754Z,101069.23
2024-03-16T00:11:46.024Z,101069.25
2024-03-16T00:12:08.344Z,101073.15
2024-03-16T00:12:30.591Z,101069.83
2024-03-16T00:12:52.860Z,101070.04
2024-03-16T00:13:15.272Z,101069.02
2024-03-16T00:13:37.665Z,101070.47
2024-03-16T00:14:01.699Z,101069.63
2024-03-16T00:14:24.481Z,101066.55
2024-03-16T00:14:49.432Z,101067.99
2024-03-16T00:15:11.520Z,101070.88
2024-03-16T00:15:33.646Z,101069.23
2024-03-16T00:15:57.538Z,101071.23
2024-03-16T00:16:20.441Z,101072.89
2024-03-16T00:16:42.515Z,101070.85
2024-03-16T00:17:06.071Z,101069.14
2024-03-16T00:17:28.982Z,101071.08
2024-03-16T00:17:51.094Z,101073.33
2024-03-16T00:18:13.232Z,101069.84
2024-03-16T00:18:37.746Z,101067.48
2024-03-16T00:19:00.068Z,101065.46
2024-03-16T00:19:22.578Z,101064.49
2024-03-16T00:19:46.617Z,101064.92
2024-03-16T00:20:11.670Z,101066.04
2024-03-16T00:20:33.744Z,101065.07
2024-03-16T00:20:56.393Z,101066.37
2024-03-16T00:21:18.551Z,101069.25
2024-03-16T00:21:40.715Z,101066.89
2024-03-16T00:22:03.164Z,101066.13
2024-03-16T00:22:25.445Z,101068.89
2024-03-16T00:22:47.634Z,101067.84
2024-03-16T00:23:09.829Z,101065.35
2024-03-16T00:23:31.953Z,101064.86
2024-03-16T00:23:56.989Z,101062.83
2024-03-16T00:24:19.897Z,101065.13
2024-03-16T00:24:42.020Z,101066.73
2024-03-16T00:25:04.799Z,101066.10
2024-03-16T00:25:27.026Z,101067.19
2024-03-16T00:25:49.175Z,101064.38
2024-03-16T00:26:12.798Z,101066.36
2024-03-16T00:26:35.202Z,101064.48
2024-03-16T00:26:58.729Z,101063.09
2024-03-16T00:27:20.909Z,101066.98
2024-03-16T00:27:43.181Z,101065.48
2024-03-16T00:28:06.095Z,101065.35
2024-03-16T00:28:29.171Z,101062.63
2024-03-16T00:28:52.423Z,101065.83
2024-03-16T00:29:14.938Z,101066.42
2024-03-16T00:29:37.140Z,101064.02
2024-03-16T00:29:59.207Z,101063.56
2024-03-16T00:30:21.447Z,101065.75
2024-03-16T00:30:44.512Z,101063.19
2024-03-16T00:31:07.499Z,101064.11
2024-03-16T00:31:29.962Z,101063.84
2024-03-16T00:31:52.552Z,101065.10
2024-03-16T00:32:14.616Z,101069.67
2024-03-16T00:32:37.781Z,101069.18
2024-03-16T00:33:00.096Z,101070.77
2024-03-16T00:33:23.054Z,101066.00
2024-03-16T00:33:45.308Z,101067.88
2024-03-16T00:34:09.660Z,101066.77
2024-03-16T00:34:32.103Z,101065.98
2024-03-16T00:34:56.453Z,101067.15
2024-03-16T00:35:18.832Z,101064.94
2024-03-16T00:35:41.352Z,101062.95
2024-03-16T00:36:03.539Z,101065.35
2024-03-16T00:36:25.667Z,101067.20
2024-03-16T00:36:48.822Z,101063.45
2024-03-16T00:37:11.117Z,101062.53
2024-03-16T00:37:33.649Z,101062.51
2024-03-16T00:37:55.938Z,101062.84
2024-03-16T00:38:18.648Z,101060.39
2024-03-16T00:38:40.755Z,101061.62
2024-03-16T00:39:02.944Z,101058.70
2024-03-16T00:39:25.529Z,101060.80
2024-03-16T00:39:47.743Z,101059.96
2024-03-16T00:40:10.563Z,101060.33
2024-03-16T00:40:33.030Z,101060.89
2024-03-16T00:40:55.250Z,101057.25
2024-03-16T00:41:21.403Z,101057.63
2024-03-16T00:41:43.857Z,101056.64
2024-03-16T00:42:06.097Z,101060.20
2024-03-16T00:42:28.332Z,101059.35
2024-03-16T00:42:50.813Z,101057.11
2024-03-16T00:43:19.424Z,101059.04
2024-03-16T00:43:42.234Z,101057.34
2024-03-16T00:44:04.355Z,101058.58
2024-03-16T00:44:27.141Z,101058.61
2024-03-16T00:44:49.273Z,101059.46
2024-03-16T00:45:11.417Z,101058.76
2024-03-16T00:45:33.612Z,101061.91
2024-03-16T00:45:55.841Z,101062.08
2024-03-16T00:46:17.999Z,101061.89
2024-03-16T00:46:40.064Z,101064.45
2024-03-16T00:47:02.124Z,101060.20
2024-03-16T00:47:24.713Z,101063.23
2024-03-16T00:47:46.934Z,101061.20
2024-03-16T00:48:09.196Z,101063.73
2024-03-16T00:48:31.501Z,101062.88
2024-03-16T00:48:53.906Z,101061.91
2024-03-16T00:49:16.061Z,101063.33
2024-03-16T00:49:38.559Z,101065.48
2024-03-16T00:50:00.618Z,101065.20
2024-03-16T00:50:23.027Z,101064.23
2024-03-16T00:50:45.249Z,101067.98
2024-03-16T00:51:07.362Z,101067.55
2024-03-16T00:51:29.666Z,101066.45
2024-03-16T00:51:51.876Z,101067.07
2024-03-16T00:52:15.166Z,101065.88
2024-03-16T00:52:37.541Z,101066.39
2024-03-16T00:52:59.675Z,101065.48
2024-03-16T00:53:21.828Z,101067.62
2024-03-16T00:53:44.306Z,101064.66
2024-03-16T00:54:06.720Z,101066.11
2024-03-16T00:54:28.928Z,101063.48
2024-03-16T00:54:51.332Z,101067.85
2024-03-16T00:55:13.455Z,101065.98
2024-03-16T00:55:36.595Z,101066.52
2024-03-16T00:55:59.145Z,101065.84
2024-03-16T00:56:22.157Z,101067.27
2024-03-16T00:56:46.592Z,101066.23
2024-03-16T00:57:08.868Z,101066.96
2024-03-16T00:57:30.925Z,101065.44
2024-03-16T00:57:53.231Z,101066.98
2024-03-16T00:58:15.413Z,101067.54
2024-03-16T00:58:37.963Z,101068.10
2024-03-16T00:59:00.203Z,101063.08
2024-03-16T00:59:23.367Z,101065.54
2024-03-16T00:59:45.564Z,101066.90
2024-03-16T01:00:10.656Z,101065.52
2024-03-16T01:00:32.854Z,101064.08
2024-03-16T01:00:55.332Z,101065.08
2024-03-16T01:01:18.530Z,101063.23
2024-03-16T01:01:40.845Z,101067.39
2024-03-16T01:02:05.099Z,101063.23
2024-03-16T01:02:27.466Z,101062.05
2024-03-16T01:02:50.061Z,101062.33
2024-03-16T01:03:12.159Z,101060.31
2024-03-16T01:03:34.264Z,101060.73
2024-03-16T01:03:56.489Z,101059.29
2024-03-16T01:04:18.760Z,101060.60
2024-03-16T01:04:41.243Z,101060.77
2024-03-16T01:05:03.393Z,101061.10
2024-03-16T01:05:28.085Z,101057.63
2024-03-16T01:05:53.525Z,101057.52
2024-03-16T01:06:15.743Z,101058.10
2024-03-16T01:06:38.360Z,101056.80
2024-03-16T01:07:01.169Z,101056.88
2024-03-16T01:07:23.363Z,101057.67
2024-03-16T01:07:45.534Z,101055.88
2024-03-16T01:08:07.637Z,101055.28
2024-03-16T01:08:29.731Z,101058.33
2024-03-16T01:08:51.908Z,101055.45
2024-03-16T01:09:17.286Z,101055.19
2024-03-16T01:09:39.614Z,101055.98
2024-03-16T01:10:02.203Z,101057.28
2024-03-16T01:10:24.669Z,101053.38
2024-03-16T01:10:46.827Z,101056.77
2024-03-16T01:11:10.392Z,101058.63
2024-03-16T01:11:33.572Z,101054.64
2024-03-16T01:11:55.798Z,101056.64
2024-03-16T01:12:17.993Z,101053.70
2024-03-16T01:12:40.045Z,101053.92
2024-03-16T01:13:02.302Z,101055.22
2024-03-16T01:13:24.554Z,101054.16
2024-03-16T01:13:46.772Z,101054.02
2024-03-16T01:14:09.984Z,101051.75
2024-03-16T01:14:32.045Z,101054.34
2024-03-16T01:14:54.103Z,101057.10
2024-03-16T01:15:17.709Z,101054.75
2024-03-16T01:15:39.842Z,101057.11
2024-03-16T01:16:02.924Z,101059.98
2024-03-16T01:16:25.408Z,101056.80
2024-03-16T01:16:47.488Z,101058.65
2024-03-16T01:17:09.680Z,101056.62
2024-03-16T01:17:32.045Z,101061.64
2024-03-16T01:17:54.209Z,101059.12
2024-03-16T01:18:16.375Z,101058.54
2024-03-16T01:18:40.933Z,101058.67
2024-03-16T01:19:03.186Z,101057.98
2024-03-16T01:19:26.226Z,101060.05
2024-03-16T01:19:48.428Z,101060.08
2024-03-16T01:20:10.700Z,101058.02
2024-03-16T01:20:32.834Z,101058.56
2024-03-16T01:20:55.092Z,101057.24
2024-03-16T01:21:17.397Z,101060.77
2024-03-16T01:21:39.665Z,101062.23
2024-03-16T01:22:02.359Z,101058.98
2024-03-16T01:22:24.444Z,101059.05
2024-03-16T01:22:46.490Z,101060.68
2024-03-16T01:23:08.769Z,101061.45
2024-03-16T01:23:31.573Z,101060.98
2024-03-16T01:23:53.993Z,101061.40
2024-03-16T01:24:16.169Z,101062.49
2024-03-16T01:24:38.249Z,101061.02
2024-03-16T01:25:00.442Z,101060.58
2024-03-16T01:25:23.069Z,101061.19
2024-03-16T01:25:45.249Z,101057.98
2024-03-16T01:26:08.416Z,101059.77
2024-03-16T01:26:30.480Z,101060.52
2024-03-16T01:26:52.550Z,101060.05
2024-03-16T01:27:14.584Z,101057.27
2024-03-16T01:27:36.923Z,101061.52
2024-03-16T01:27:59.249Z,101060.73
2024-03-16T01:28:21.730Z,101061.61
2024-03-16T01:28:43.851Z,101061.38
2024-03-16T01:29:06.542Z,101060.60
2024-03-16T01:29:28.612Z,101058.60
2024-03-16T01:29:50.699Z,101060.12
2024-03-16T01:30:12.825Z,101057.46
2024-03-16T01:30:34.975Z,101057.05
2024-03-16T01:30:58.456Z,101058.64
2024-03-16T01:31:20.758Z,101059.95
2024-03-16T01:31:43.091Z,101059.96
2024-03-16T01:32:09.426Z,101059.55
2024-03-16T01:32:31.752Z,101058.84
2024-03-16T01:32:54.184Z,101063.20
2024-03-16T01:33:16.239Z,101061.88
2024-03-16T01:33:40.760Z,101060.12
2024-03-16T01:34:03.237Z,101059.50
2024-03-16T01:34:25.414Z,101061.65
2024-03-16T01:34:47.500Z,101060.47
2024-03-16T01:35:10.720Z,101060.15
2024-03-16T01:35:32.931Z,101056.70
2024-03-16T01:35:55.513Z,101056.77
2024-03-16T01:36:17.725Z,101059.98
2024-03-16T01:36:39.940Z,101059.35
2024-03-16T01:37:02.334Z,101063.10
2024-03-16T01:37:24.542Z,101059.70
2024-03-16T01:37:46.791Z,101063.29
2024-03-16T01:38:09.133Z,101062.44
2024-03-16T01:38:31.281Z,101057.96
2024-03-16T01:38:53.375Z,101063.79
2024-03-16T01:39:18.728Z,101062.45
2024-03-16T01:39:40.884Z,101063.27
2024-03-16T01:40:03.506Z,101061.06
2024-03-16T01:40:26.856Z,101063.57
2024-03-16T01:40:49.180Z,101059.42
2024-03-16T01:41:12.159Z,101063.13
2024-03-16T01:41:34.362Z,101066.66
2024-03-16T01:41:57.067Z,101061.71
2024-03-16T01:42:19.189Z,101060.65
2024-03-16T01:42:41.253Z,101063.07
2024-03-16T01:43:03.770Z,101065.96
2024-03-16T01:43:26.042Z,101064.15
2024-03-16T01:43:49.152Z,101063.83
2024-03-16T01:44:13.721Z,101065.66
2024-03-16T01:44:35.900Z,101063.63
2024-03-16T01:45:18.955Z,101066.00
2024-03-16T01:45:41.596Z,101062.66
2024-03-16T01:46:03.789Z,101060.25
2024-03-16T01:46:26.265Z,101062.66
2024-03-16T01:46:48.639Z,101064.75
2024-03-16T01:47:10.851Z,101064.73
2024-03-16T01:47:33.090Z,101067.34
2024-03-16T01:47:56.209Z,101066.46
2024-03-16T01:48:18.566Z,101065.08
2024-03-16T01:48:40.778Z,101063.50
2024-03-16T01:49:02.957Z,101063.34
2024-03-16T01:49:25.130Z,101068.59
2024-03-16T01:49:47.316Z,101064.60
2024-03-16T01:50:10.337Z,101062.86
2024-03-16T01:50:33.884Z,101065.69
2024-03-16T01:50:56.098Z,101068.90
2024-03-16T01:51:18.547Z,101066.29
2024-03-16T01:51:40.839Z,101061.59
2024-03-16T01:52:04.789Z,101066.88
2024-03-16T01:52:29.857Z,101066.41
2024-03-16T01:52:52.044Z,101066.61
2024-03-16T01:53:14.217Z,101067.13
2024-03-16T01:53:37.047Z,101069.23
2024-03-16T01:53:59.094Z,101069.91
2024-03-16T01:54:21.207Z,101067.23
2024-03-16T01:54:43.649Z,101067.14
2024-03-16T01:55:06.253Z,101065.68
2024-03-16T01:55:28.508Z,101066.12
2024-03-16T01:55:51.647Z,101066.02
2024-03-16T01:56:13.812Z,101064.86
2024-03-16T01:56:36.239Z,101068.60
2024-03-16T01:56:58.405Z,101068.52
2024-03-16T01:57:20.700Z,101067.73
2024-03-16T01:57:42.791Z,101065.40
2024-03-16T01:58:05.609Z,101066.21
2024-03-16T01:58:27.893Z,101066.73
2024-03-16T01:58:50.014Z,101070.41
2024-03-16T01:59:13.615Z,101067.77
2024-03-16T01:59:35.814Z,101067.63
2024-03-16T01:59:58.034Z,101069.08
2024-03-16T02:00:20.148Z,101067.73
2024-03-16T02:00:48.693Z,101068.81
2024-03-16T02:01:11.474Z,101069.88
2024-03-16T02:01:34.029Z,101069.75
2024-03-16T02:01:56.513Z,101070.11
2024-03-16T02:02:32.758Z,101067.70
2024-03-16T02:02:55.464Z,101066.55
2024-03-16T02:03:17.644Z,101071.01
2024-03-16T02:03:41.007Z,101069.00
2024-03-16T02:04:04.667Z,101068.36
2024-03-16T02:04:26.879Z,101067.45
2024-03-16T02:04:48.951Z,101072.59
2024-03-16T02:05:11.165Z,101070.79
2024-03-16T02:05:33.366Z,101072.27
2024-03-16T02:05:55.753Z,101071.78
2024-03-16T02:06:18.558Z,101070.92
2024-03-16T02:06:40.724Z,101076.17
2024-03-16T02:07:10.214Z,101071.78
2024-03-16T02:07:32.967Z,101071.52
2024-03-16T02:07:55.189Z,101069.73
2024-03-16T02:08:17.418Z,101076.16
2024-03-16T02:08:39.903Z,101069.77
2024-03-16T02:09:01.951Z,101073.02
2024-03-16T02:09:24.636Z,101070.33
2024-03-16T02:09:46.700Z,101068.66
2024-03-16T02:10:13.541Z,101070.89
2024-03-16T02:10:36.235Z,101067.89
2024-03-16T02:10:58.794Z,101073.30
2024-03-16T02:11:22.259Z,101069.83
2024-03-16T02:11:44.521Z,101069.11
2024-03-16T02:12:11.602Z,101071.79
2024-03-16T02:12:33.773Z,101074.64
2024-03-16T02:12:55.961Z,101072.40
2024-03-16T02:13:18.224Z,101073.31
2024-03-16T02:13:40.303Z,101075.84
2024-03-16T02:14:02.374Z,101073.95
2024-03-16T02:14:24.478Z,101073.48
2024-03-16T02:14:46.574Z,101072.88
2024-03-16T02:15:09.674Z,101072.09
2024-03-16T02:15:32.143Z,101076.89
2024-03-16T02:15:54.321Z,101075.58
2024-03-16T02:16:17.128Z,101073.71
2024-03-16T02:16:39.499Z,101070.33
2024-03-16T02:17:01.666Z,101075.68
2024-03-16T02:17:24.220Z,101076.09
2024-03-16T02:17:47.686Z,101075.83
2024-03-16T02:18:10.893Z,101075.91
2024-03-16T02:18:33.337Z,101075.58
2024-03-16T02:18:56.137Z,101074.89
2024-03-16T02:19:18.326Z,101080.27
2024-03-16T02:19:40.522Z,101078.49
2024-03-16T02:20:10.167Z,101075.49
2024-03-16T02:20:33.003Z,101078.92
2024-03-16T02:20:55.443Z,101076.46
2024-03-16T02:21:17.610Z,101076.02
2024-03-16T02:21:39.869Z,101077.21
2024-03-16T02:22:04.890Z,101078.61
2024-03-16T02:22:27.313Z,101076.77
2024-03-16T02:22:51.127Z,101075.88
2024-03-16T02:23:13.342Z,101079.71
2024-03-16T02:23:35.400Z,101081.13
2024-03-16T02:23:57.620Z,101079.30
2024-03-16T02:24:19.719Z,101076.90
2024-03-16T02:24:41.794Z,101079.77
2024-03-16T02:25:04.364Z,101077.09
2024-03-16T02:25:27.118Z,101077.52
2024-03-16T02:25:49.296Z,101078.11
2024-03-16T02:26:12.581Z,101077.33
2024-03-16T02:26:35.218Z,101078.66
2024-03-16T02:26:57.264Z,101081.17
2024-03-16T02:27:21.617Z,101078.57
2024-03-16T02:27:45.021Z,101077.09
2024-03-16T02:28:09.372Z,101075.58
2024-03-16T02:28:31.708Z,101078.64
2024-03-16T02:28:53.931Z,101080.98
2024-03-16T02:29:19.273Z,101077.52
2024-03-16T02:29:41.570Z,101077.96
2024-03-16T02:30:04.372Z,101081.84
2024-03-16T02:30:26.655Z,101079.05
2024-03-16T02:30:49.084Z,101078.90
2024-03-16T02:31:11.213Z,101080.08
2024-03-16T02:31:33.557Z,101080.20
2024-03-16T02:31:56.364Z,101084.54
2024-03-16T02:32:18.560Z,101082.02
2024-03-16T02:32:40.763Z,101082.47
2024-03-16T02:33:07.278Z,101080.31
2024-03-16T02:33:29.859Z,101082.01
2024-03-16T02:33:51.999Z,101080.33
2024-03-16T02:34:14.604Z,101084.69
2024-03-16T02:34:39.661Z,101083.58
2024-03-16T02:35:02.239Z,101081.31
2024-03-16T02:35:24.485Z,101083.44
2024-03-16T02:35:46.585Z,101080.83
2024-03-16T02:36:08.660Z,101084.03
2024-03-16T02:36:31.201Z,101081.83
2024-03-16T02:36:54.102Z,101080.98
2024-03-16T02:37:17.300Z,101083.14
2024-03-16T02:37:39.425Z,101081.66
2024-03-16T02:38:01.613Z,101083.13
2024-03-16T02:38:24.125Z,101082.68
2024-03-16T02:38:46.801Z,101082.06
2024-03-16T02:39:12.194Z,101082.16
2024-03-16T02:39:34.629Z,101085.28
2024-03-16T02:39:57.019Z,101081.02
2024-03-16T02:40:19.316Z,101083.02
2024-03-16T02:40:43.685Z,101085.45
2024-03-16T02:41:06.889Z,101083.95
2024-03-16T02:41:28.999Z,101083.11
2024-03-16T02:41:51.117Z,101084.12
2024-03-16T02:42:13.392Z,101083.58
2024-03-16T02:42:36.679Z,101083.00
2024-03-16T02:42:59.048Z,101082.39
2024-03-16T02:43:21.296Z,101085.44
2024-03-16T02:43:43.391Z,101084.85
2024-03-16T02:44:06.295Z,101085.64
2024-03-16T02:44:28.375Z,101085.23
2024-03-16T02:44:50.484Z,101085.62
2024-03-16T02:45:12.917Z,101088.02
2024-03-16T02:45:35.045Z,101087.61
2024-03-16T02:45:59.600Z,101084.61
2024-03-16T02:46:21.800Z,101083.95
2024-03-16T02:46:43.846Z,101084.48
2024-03-16T02:47:06.091Z,101087.48
2024-03-16T02:47:28.337Z,101087.52
2024-03-16T02:47:50.604Z,101085.51
2024-03-16T02:48:12.810Z,101088.16
2024-03-16T02:48:35.132Z,101086.79
2024-03-16T02:48:57.423Z,101087.71
2024-03-16T02:49:19.666Z,101088.42
2024-03-16T02:49:41.774Z,101086.77
2024-03-16T02:50:05.112Z,101088.20
2024-03-16T02:50:27.302Z,101089.80
2024-03-16T02:50:49.894Z,101087.92
2024-03-16T02:51:12.584Z,101088.48
2024-03-16T02:51:35.380Z,101089.80
2024-03-16T02:51:57.858Z,101090.55
2024-03-16T02:52:19.985Z,101090.24
2024-03-16T02:52:42.037Z,101090.44
2024-03-16T02:53:04.912Z,101090.20
2024-03-16T02:53:27.168Z,101087.18
2024-03-16T02:53:52.657Z,101088.72
2024-03-16T02:54:15.067Z,101089.55
2024-03-16T02:54:37.265Z,101094.27
2024-03-16T02:55:00.384Z,101089.47
2024-03-16T02:55:22.634Z,101089.98
2024-03-16T02:55:45.751Z,101090.46
2024-03-16T02:56:07.944Z,101093.44
2024-03-16T02:56:30.135Z,101092.00
2024-03-16T02:56:53.192Z,101091.69
2024-03-16T02:57:15.390Z,101089.27
2024-03-16T02:57:37.640Z,101089.56
2024-03-16T02:58:00.081Z,101091.23
2024-03-16T02:58:22.346Z,101090.79
2024-03-16T02:58:44.522Z,101090.01
2024-03-16T02:59:07.031Z,101086.77
2024-03-16T02:59:31.155Z,101087.90
2024-03-16T02:59:53.461Z,101088.86
2024-03-16T03:00:18.062Z,101088.23
2024-03-16T03:00:40.690Z,101085.19
2024-03-16T03:01:02.974Z,101087.02
2024-03-16T03:01:25.475Z,101086.91
2024-03-16T03:01:47.798Z,101083.84
2024-03-16T03:02:10.096Z,101088.75
2024-03-16T03:02:33.026Z,101087.73
2024-03-16T03:02:55.301Z,101088.41
2024-03-16T03:03:17.374Z,101089.39
2024-03-16T03:03:39.452Z,101089.19
2024-03-16T03:04:01.574Z,101089.98
2024-03-16T03:04:24.284Z,101090.83
2024-03-16T03:04:46.369Z,101089.00
2024-03-16T03:05:12.124Z,101089.30
2024-03-16T03:05:34.549Z,101090.83
2024-03-16T03:05:56.625Z,101088.70
2024-03-16T03:06:19.466Z,101089.05
2024-03-16T03:06:41.793Z,101089.58
2024-03-16T03:07:05.833Z,101091.55
2024-03-16T03:07:28.406Z,101090.36
2024-03-16T03:07:50.704Z,101089.71
2024-03-16T03:08:12.892Z,101088.49
2024-03-16T03:08:35.169Z,101088.55
2024-03-16T03:08:57.213Z,101091.73
2024-03-16T03:09:19.293Z,101093.18
2024-03-16T03:09:41.457Z,101089.02
2024-03-16T03:10:04.217Z,101089.41
2024-03-16T03:10:26.565Z,101087.85
2024-03-16T03:10:48.758Z,101091.05
2024-03-16T03:11:11.067Z,101091.42
2024-03-16T03:11:34.253Z,101095.31
2024-03-16T03:11:56.700Z,101095.70
2024-03-16T03:12:18.891Z,101092.92
2024-03-16T03:12:41.147Z,101092.77
2024-03-16T03:13:03.400Z,101091.54
2024-03-16T03:13:25.651Z,101094.84
2024-03-16T03:13:51.897Z,101094.25
2024-03-16T03:14:18.205Z,101091.58
2024-03-16T03:14:40.686Z,101094.95
2024-03-16T03:15:02.809Z,101092.36
2024-03-16T03:15:24.884Z,101091.57
2024-03-16T03:15:49.467Z,101090.77
2024-03-16T03:16:11.672Z,101095.38
2024-03-16T03:16:33.789Z,101091.09
2024-03-16T03:16:56.004Z,101091.50
2024-03-16T03:17:18.189Z,101091.44
2024-03-16T03:17:40.569Z,101091.02
2024-03-16T03:18:03.977Z,101092.27
2024-03-16T03:18:26.497Z,101092.91
2024-03-16T03:18:49.035Z,101092.45
2024-03-16T03:19:12.049Z,101091.23
2024-03-16T03:19:34.213Z,101092.77
2024-03-16T03:19:56.408Z,101093.19
2024-03-16T03:20:22.237Z,101092.83
2024-03-16T03:20:44.480Z,101093.59
2024-03-16T03:21:06.675Z,101093.41
2024-03-16T03:21:30.764Z,101092.39
2024-03-16T03:21:53.166Z,101091.55
2024-03-16T03:22:15.445Z,101091.40
2024-03-16T03:22:37.948Z,101094.74
2024-03-16T03:23:00.351Z,101095.14
2024-03-16T03:23:22.410Z,101096.20
2024-03-16T03:23:44.600Z,101094.59
2024-03-16T03:24:06.704Z,101095.84
2024-03-16T03:24:28.790Z,101095.27
2024-03-16T03:24:51.093Z,101096.07
2024-03-16T03:25:13.352Z,101096.48
2024-03-16T03:25:37.285Z,101097.94
2024-03-16T03:26:00.100Z,101095.89
2024-03-16T03:26:24.174Z,101096.02
2024-03-16T03:26:46.426Z,101098.29
2024-03-16T03:27:08.522Z,101094.87
2024-03-16T03:27:30.640Z,101095.84
2024-03-16T03:27:53.054Z,101093.66
2024-03-16T03:28:18.310Z,101093.98
2024-03-16T03:28:40.799Z,101096.89
2024-03-16T03:29:03.169Z,101099.50
2024-03-16T03:29:25.460Z,101093.85
2024-03-16T03:29:47.689Z,101097.58
2024-03-16T03:30:10.161Z,101096.84
2024-03-16T03:30:32.308Z,101097.39
2024-03-16T03:30:54.793Z,101095.50
2024-03-16T03:31:17.498Z,101099.34
2024-03-16T03:31:39.770Z,101098.98
2024-03-16T03:32:01.939Z,101100.56
2024-03-16T03:32:24.038Z,101100.77
2024-03-16T03:32:46.167Z,101099.04
2024-03-16T03:33:09.991Z,101101.36
2024-03-16T03:33:32.521Z,101099.11
2024-03-16T03:33:54.729Z,101100.20
2024-03-16T03:34:16.888Z,101102.35
2024-03-16T03:34:38.954Z,101100.27
2024-03-16T03:35:00.988Z,101100.82
2024-03-16T03:35:23.115Z,101100.29
2024-03-16T03:35:45.213Z,101101.83
2024-03-16T03:36:07.811Z,101100.38
2024-03-16T03:36:30.462Z,101100.83
2024-03-16T03:36:52.873Z,101100.17
2024-03-16T03:37:15.376Z,101097.47
2024-03-16T03:37:37.548Z,101102.45
2024-03-16T03:37:59.604Z,101097.26
2024-03-16T03:38:21.816Z,101096.80
2024-03-16T03:38:44.909Z,101100.85
2024-03-16T03:39:07.097Z,101099.73
2024-03-16T03:39:29.195Z,101098.95
2024-03-16T03:39:54.038Z,101097.16
2024-03-16T03:40:16.638Z,101097.17
2024-03-16T03:40:38.944Z,101095.95
2024-03-16T03:41:01.396Z,101097.04
2024-03-16T03:41:23.705Z,101099.15
2024-03-16T03:41:45.844Z,101098.33
2024-03-16T03:42:07.945Z,101100.16
2024-03-16T03:42:34.432Z,101100.88
2024-03-16T03:43:02.764Z,101099.20
2024-03-16T03:43:26.034Z,101099.62
2024-03-16T03:43:58.673Z,101099.98
2024-03-16T03:44:26.161Z,101103.92
2024-03-16T03:45:01.401Z,101102.43
2024-03-16T03:45:29.052Z,101102.31
2024-03-16T03:45:54.631Z,101101.81
2024-03-16T03:46:43.020Z,101103.96
2024-03-16T03:47:05.353Z,101103.11
2024-03-16T03:47:41.820Z,101102.90
2024-03-16T03:48:15.717Z,101101.27
2024-03-16T03:48:42.525Z,101105.55
2024-03-16T03:49:16.210Z,101104.92
2024-03-16T03:49:40.823Z,101104.65
2024-03-16T03:50:04.841Z,101104.18
2024-03-16T03:50:30.473Z,101107.38
2024-03-16T03:50:56.898Z,101105.21
2024-03-16T03:51:19.810Z,101103.19
2024-03-16T03:51:41.887Z,101101.92
2024-03-16T03:52:05.755Z,101106.45
2024-03-16T03:52:28.543Z,101103.86
2024-03-16T03:52:50.815Z,101107.38
2024-03-16T03:53:13.010Z,101104.65
2024-03-16T03:53:35.139Z,101102.73
2024-03-16T03:53:59.062Z,101104.53
2024-03-16T03:54:21.094Z,101105.21
2024-03-16T03:54:43.328Z,101104.02
2024-03-16T03:55:06.622Z,101103.73
2024-03-16T03:55:28.969Z,101106.23
2024-03-16T03:55:51.193Z,101105.75
2024-03-16T03:56:13.425Z,101105.80
2024-03-16T03:56:35.861Z,101106.88
2024-03-16T03:56:58.121Z,101108.66
2024-03-16T03:57:20.315Z,101109.74
2024-03-16T03:57:42.397Z,101106.45
2024-03-16T03:58:04.591Z,101108.74
2024-03-16T03:58:26.891Z,101105.45
2024-03-16T03:58:48.934Z,101110.34
2024-03-16T03:59:11.092Z,101110.89
2024-03-16T03:59:33.302Z,101110.16
2024-03-16T03:59:55.489Z,101108.90
2024-03-16T04:00:17.661Z,101109.91
2024-03-16T04:00:39.896Z,101109.02
2024-03-16T04:01:02.319Z,101110.13
2024-03-16T04:01:24.794Z,101110.27
2024-03-16T04:01:48.075Z,101105.55
2024-03-16T04:02:10.322Z,101112.30
2024-03-16T04:02:32.663Z,101109.31
2024-03-16T04:02:54.747Z,101112.14
2024-03-16T04:03:17.044Z,101107.80
2024-03-16T04:03:39.131Z,101110.61
2024-03-16T04:04:01.442Z,101109.65
2024-03-16T04:04:23.933Z,101107.77
2024-03-16T04:04:46.437Z,101109.75
2024-03-16T04:05:08.633Z,101110.65
2024-03-16T04:05:30.679Z,101109.70
2024-03-16T04:05:55.695Z,101109.21
2024-03-16T04:06:17.764Z,101110.34
2024-03-16T04:06:42.680Z,101108.11
2024-03-16T04:07:04.980Z,101111.13
2024-03-16T04:07:28.667Z,101111.00
2024-03-16T04:07:50.962Z,101111.58
2024-03-16T04:08:13.248Z,101107.77
2024-03-16T04:08:35.744Z,101108.84
2024-03-16T04:08:58.445Z,101111.30
2024-03-16T04:09:20.656Z,101110.46
2024-03-16T04:09:43.681Z,101108.33
2024-03-16T04:10:06.658Z,101110.10
2024-03-16T04:10:29.154Z,101110.55
2024-03-16T04:10:51.250Z,101111.69
2024-03-16T04:11:13.877Z,101113.39
2024-03-16T04:11:36.166Z,101113.49
2024-03-16T04:11:58.458Z,101114.14
2024-03-16T04:12:20.593Z,101112.16
2024-03-16T04:12:42.843Z,101113.19
2024-03-16T04:13:05.481Z,101112.25
2024-03-16T04:13:27.972Z,101112.98
2024-03-16T04:13:50.126Z,101116.48
2024-03-16T04:14:12.650Z,101111.59
2024-03-16T04:14:34.727Z,101113.18
2024-03-16T04:14:56.909Z,101112.86
2024-03-16T04:15:18.981Z,101113.59
2024-03-16T04:15:41.153Z,101113.64
2024-03-16T04:16:03.986Z,101115.93
2024-03-16T04:16:26.084Z,101115.83
2024-03-16T04:16:49.391Z,101115.31
2024-03-16T04:17:11.626Z,101115.02
2024-03-16T04:17:33.751Z,101118.74
2024-03-16T04:17:55.988Z,101115.80
2024-03-16T04:18:18.397Z,101119.16
2024-03-16T04:18:40.628Z,101118.68
2024-03-16T04:19:02.940Z,101118.17
2024-03-16T04:19:25.379Z,101121.02
2024-03-16T04:19:48.310Z,101119.28
2024-03-16T04:20:13.828Z,101120.89
2024-03-16T04:20:36.260Z,101119.64
2024-03-16T04:20:58.759Z,101121.19